Antakya, Turkey
Current Conditions -  °F | °C
As of 1:50 PM on Wednesday 22 Oct 2014 (Local Time) from LTDA Reporting Station
Broken Clouds Broken Clouds  
Wind Chill: 73°   Ceiling: 10000
Heat Index: 73°   Visibility: 6mi
Dew Point: 45°   Wind: 6mph
Humidity: 36%   Direction: 40°NE
Pressure: 30.06"   Gusts: NA
Location:  36.2°N, 36.15°E
Report Text: LTDA 221150Z 04005KT 010V080 9999 FEW035 BKN100 23/07 Q1018
Loading
Personal Weather Stations






























Interactive Weather Map New forecast layout! Learn more

10-Day Weather Forecast

Advertisements
Track Severe Weather on mobile